createdAt,value
2018-10-03T00:01:50.540Z,13.53
2018-10-03T00:04:18.743Z,13.59
2018-10-03T00:06:46.934Z,13.64
2018-10-03T00:09:15.096Z,13.70
2018-10-03T00:11:43.264Z,13.74
2018-10-03T00:14:11.609Z,13.70
2018-10-03T00:16:39.782Z,13.68
2018-10-03T00:19:08.048Z,13.70
2018-10-03T00:21:36.307Z,13.75
2018-10-03T00:24:04.426Z,13.75
2018-10-03T00:26:32.620Z,13.83
2018-10-03T00:29:00.860Z,13.84
2018-10-03T00:31:29.052Z,13.84
2018-10-03T00:33:57.253Z,13.82
2018-10-03T00:36:25.436Z,13.61
2018-10-03T00:38:53.644Z,13.63
2018-10-03T00:41:21.862Z,13.66
2018-10-03T00:43:50.041Z,13.76
2018-10-03T00:46:18.217Z,13.71
2018-10-03T00:48:46.424Z,13.70
2018-10-03T00:51:14.660Z,13.71
2018-10-03T00:53:42.849Z,13.58
2018-10-03T00:56:11.132Z,13.55
2018-10-03T00:58:39.320Z,13.58
2018-10-03T01:01:07.504Z,13.59
2018-10-03T01:03:35.684Z,13.45
2018-10-03T01:06:03.916Z,13.50
2018-10-03T01:08:32.074Z,13.54
2018-10-03T01:11:00.252Z,13.42
2018-10-03T01:13:28.436Z,13.43
2018-10-03T01:15:56.612Z,13.46
2018-10-03T01:18:24.800Z,13.35
2018-10-03T01:20:53.002Z,13.14
2018-10-03T01:23:21.176Z,13.20
2018-10-03T01:25:49.383Z,13.16
2018-10-03T01:28:17.567Z,13.14
2018-10-03T01:30:45.748Z,13.26
2018-10-03T01:33:13.943Z,13.29
2018-10-03T01:35:42.439Z,13.15
2018-10-03T01:38:10.635Z,13.33
2018-10-03T01:40:38.809Z,13.39
2018-10-03T01:43:07.132Z,13.28
2018-10-03T01:45:35.353Z,13.44
2018-10-03T01:48:03.545Z,13.54
2018-10-03T01:50:31.719Z,13.45
2018-10-03T01:52:59.905Z,13.48
2018-10-03T01:55:28.068Z,13.55
2018-10-03T01:57:56.248Z,13.59
2018-10-03T02:00:24.440Z,13.66
2018-10-03T02:02:52.609Z,13.62
2018-10-03T02:05:20.779Z,13.69
2018-10-03T02:07:48.967Z,13.72
2018-10-03T02:10:17.131Z,13.67
2018-10-03T02:12:45.316Z,13.70
2018-10-03T02:15:13.520Z,13.73
2018-10-03T02:17:41.693Z,13.90
2018-10-03T02:20:10.029Z,13.79
2018-10-03T02:22:38.224Z,13.88
2018-10-03T02:25:06.408Z,13.83
2018-10-03T02:27:34.605Z,13.70
2018-10-03T02:30:02.848Z,13.81
2018-10-03T02:32:31.068Z,13.95
2018-10-03T02:34:59.267Z,14.00
2018-10-03T02:37:27.476Z,13.95
2018-10-03T02:39:55.657Z,14.00
2018-10-03T02:42:23.835Z,14.07
2018-10-03T02:44:52.039Z,14.01
2018-10-03T02:47:20.231Z,13.92
2018-10-03T02:49:48.396Z,13.93
2018-10-03T02:52:16.596Z,13.92
2018-10-03T02:54:44.775Z,13.88
2018-10-03T02:57:12.993Z,13.96
2018-10-03T02:59:41.176Z,13.94
2018-10-03T03:02:09.696Z,13.98
2018-10-03T03:04:37.888Z,13.94
2018-10-03T03:07:06.081Z,13.86
2018-10-03T03:09:34.260Z,13.97
2018-10-03T03:12:02.466Z,13.91
2018-10-03T03:14:30.645Z,13.85
2018-10-03T03:16:58.839Z,13.85
2018-10-03T03:19:27.033Z,13.79
2018-10-03T03:21:55.189Z,13.92
2018-10-03T03:24:23.380Z,13.95
2018-10-03T03:26:51.592Z,13.90
2018-10-03T03:29:19.744Z,13.81
2018-10-03T03:31:47.942Z,13.92
2018-10-03T03:34:16.172Z,14.03
2018-10-03T03:36:44.333Z,14.01
2018-10-03T03:39:12.524Z,14.02
2018-10-03T03:41:41.740Z,13.95
2018-10-03T03:44:09.920Z,13.90
2018-10-03T03:46:38.089Z,13.92
2018-10-03T03:49:06.267Z,13.84
2018-10-03T03:51:34.441Z,13.95
2018-10-03T03:54:02.619Z,13.91
2018-10-03T03:56:30.798Z,13.88
2018-10-03T03:58:58.974Z,13.86
2018-10-03T04:01:27.140Z,13.88
2018-10-03T04:03:55.314Z,13.96
2018-10-03T04:06:23.488Z,13.81
2018-10-03T04:08:51.666Z,13.90
2018-10-03T04:11:19.889Z,13.87
2018-10-03T04:13:48.051Z,13.93
2018-10-03T04:16:16.234Z,13.79
2018-10-03T04:18:44.417Z,13.74
2018-10-03T04:21:12.597Z,13.85
2018-10-03T04:23:40.769Z,13.83
2018-10-03T04:26:08.970Z,13.71
2018-10-03T04:28:38.198Z,13.71
2018-10-03T04:31:06.373Z,13.81
2018-10-03T04:33:34.571Z,13.73
2018-10-03T04:36:02.769Z,13.76
2018-10-03T04:38:30.951Z,13.77
2018-10-03T04:40:59.180Z,13.72
2018-10-03T04:43:27.369Z,13.77
2018-10-03T04:45:55.557Z,13.73
2018-10-03T04:48:24.700Z,13.69
2018-10-03T04:50:52.876Z,13.82
2018-10-03T04:53:21.072Z,13.78
2018-10-03T04:55:49.247Z,13.78
2018-10-03T04:58:17.432Z,13.82
2018-10-03T05:00:45.612Z,13.83
2018-10-03T05:03:13.788Z,13.85
2018-10-03T05:05:41.966Z,13.86
2018-10-03T05:08:10.177Z,13.78
2018-10-03T05:10:38.349Z,13.77
2018-10-03T05:13:06.580Z,13.73
2018-10-03T05:15:34.765Z,13.68
2018-10-03T05:18:02.931Z,13.67
2018-10-03T05:20:31.113Z,13.64
2018-10-03T05:22:59.321Z,13.64
2018-10-03T05:25:27.520Z,13.59
2018-10-03T05:27:55.758Z,13.71
2018-10-03T05:30:23.900Z,13.62
2018-10-03T05:32:52.076Z,13.59
2018-10-03T05:35:20.270Z,13.60
2018-10-03T05:37:48.448Z,13.69
2018-10-03T05:40:16.646Z,13.46
2018-10-03T05:42:44.821Z,13.42
2018-10-03T05:45:13.881Z,13.53
2018-10-03T05:47:42.049Z,13.66
2018-10-03T05:50:10.234Z,13.58
2018-10-03T05:52:38.448Z,13.51
2018-10-03T05:55:10.361Z,13.47
2018-10-03T05:57:38.644Z,13.47
2018-10-03T06:00:06.852Z,13.52
2018-10-03T06:02:35.094Z,13.53
2018-10-03T06:05:03.273Z,13.57
2018-10-03T06:07:31.516Z,13.45
2018-10-03T06:09:59.696Z,13.39
2018-10-03T06:12:28.044Z,13.44
2018-10-03T06:14:56.249Z,13.39
2018-10-03T06:17:24.467Z,13.46
2018-10-03T06:19:55.895Z,13.45
2018-10-03T06:22:24.100Z,13.56
2018-10-03T06:24:55.448Z,13.62
2018-10-03T06:27:23.645Z,13.54
2018-10-03T06:29:51.968Z,13.60
2018-10-03T06:32:21.261Z,13.66
2018-10-03T06:34:51.495Z,13.61
2018-10-03T06:37:21.716Z,13.68
2018-10-03T06:39:49.912Z,13.66
2018-10-03T06:42:19.150Z,13.85
2018-10-03T06:44:53.131Z,13.69
2018-10-03T06:47:21.420Z,13.80
2018-10-03T06:49:49.628Z,13.82
2018-10-03T06:52:17.904Z,13.98
2018-10-03T06:54:46.200Z,13.79
2018-10-03T06:57:14.469Z,13.86
2018-10-03T06:59:42.745Z,14.02
2018-10-03T07:02:14.377Z,14.18
2018-10-03T07:04:44.640Z,14.50
2018-10-03T07:07:12.907Z,14.66
2018-10-03T07:09:41.202Z,14.69
2018-10-03T07:12:09.384Z,14.56
2018-10-03T07:14:37.567Z,14.62
2018-10-03T07:17:06.036Z,14.50
2018-10-03T07:19:34.221Z,14.46
2018-10-03T07:22:02.485Z,14.42
2018-10-03T07:24:30.698Z,14.52
2018-10-03T07:26:59.925Z,14.50
2018-10-03T07:29:28.142Z,14.40
2018-10-03T07:31:56.325Z,14.47
2018-10-03T07:34:24.524Z,14.43
2018-10-03T07:36:52.705Z,14.56
2018-10-03T07:39:20.885Z,14.55
2018-10-03T07:41:52.715Z,14.59
2018-10-03T07:44:20.916Z,14.41
2018-10-03T07:46:49.092Z,14.42
2018-10-03T07:49:17.259Z,14.52
2018-10-03T07:51:45.461Z,14.56
2018-10-03T07:54:13.629Z,14.50
2018-10-03T07:56:41.832Z,14.51
2018-10-03T07:59:10.104Z,14.76
2018-10-03T08:01:38.290Z,14.66
2018-10-03T08:04:06.487Z,14.63
2018-10-03T08:06:34.684Z,14.50
2018-10-03T08:09:03.025Z,14.43
2018-10-03T08:11:32.251Z,14.71
2018-10-03T08:14:00.434Z,14.62
2018-10-03T08:16:28.600Z,14.40
2018-10-03T08:18:57.856Z,14.49
2018-10-03T08:21:26.134Z,14.47
2018-10-03T08:23:55.387Z,14.46
2018-10-03T08:26:23.838Z,14.58
2018-10-03T08:28:52.027Z,14.51
2018-10-03T08:31:20.213Z,14.83
2018-10-03T08:33:48.532Z,14.84
2018-10-03T08:36:16.790Z,14.83
2018-10-03T08:38:45.069Z,14.81
2018-10-03T08:41:13.137Z,15.13
2018-10-03T08:43:41.304Z,15.05
2018-10-03T08:46:09.488Z,15.21
2018-10-03T08:48:37.880Z,15.48
2018-10-03T08:51:06.195Z,15.50
2018-10-03T08:53:34.495Z,15.57
2018-10-03T08:56:04.753Z,15.81
2018-10-03T08:58:34.103Z,15.86
2018-10-03T09:01:02.196Z,15.62
2018-10-03T09:03:30.433Z,15.53
2018-10-03T09:05:58.608Z,15.57
2018-10-03T09:08:33.613Z,15.47
2018-10-03T09:11:01.812Z,15.29
2018-10-03T09:13:34.345Z,15.42
2018-10-03T09:16:02.668Z,15.39
2018-10-03T09:18:30.929Z,15.51
2018-10-03T09:21:02.701Z,15.43
2018-10-03T09:23:30.971Z,15.46
2018-10-03T09:26:01.212Z,15.64
2018-10-03T09:28:29.475Z,15.55
2018-10-03T09:30:57.562Z,15.52
2018-10-03T09:33:25.797Z,15.43
2018-10-03T09:35:57.758Z,15.26
2018-10-03T09:38:25.936Z,15.23
2018-10-03T09:40:54.108Z,15.36
2018-10-03T09:43:22.306Z,15.29
2018-10-03T09:45:50.532Z,15.46
2018-10-03T09:48:18.708Z,15.53
2018-10-03T09:50:50.228Z,15.47
2018-10-03T09:53:18.396Z,15.78
2018-10-03T09:55:46.573Z,15.65
2018-10-03T09:58:14.816Z,15.58
2018-10-03T10:00:48.334Z,15.75
2018-10-03T10:03:16.464Z,15.50
2018-10-03T10:05:44.672Z,15.41
2018-10-03T10:08:12.865Z,15.43
2018-10-03T10:10:41.100Z,15.35
2018-10-03T10:13:09.292Z,15.44
2018-10-03T10:15:37.513Z,15.54
2018-10-03T10:18:05.947Z,15.64
2018-10-03T10:20:34.144Z,15.79
2018-10-03T10:23:02.317Z,15.65
2018-10-03T10:25:30.508Z,15.66
2018-10-03T10:27:58.768Z,15.51
2018-10-03T10:30:26.964Z,15.40
2018-10-03T10:32:55.289Z,15.51
2018-10-03T10:35:23.623Z,15.82
2018-10-03T10:37:51.905Z,15.93
2018-10-03T10:40:20.204Z,15.77
2018-10-03T10:42:48.265Z,15.91
2018-10-03T10:45:16.456Z,16.02
2018-10-03T10:47:44.681Z,15.82
2018-10-03T10:50:13.003Z,15.73
2018-10-03T10:52:41.172Z,15.69
2018-10-03T10:55:13.960Z,15.60
2018-10-03T10:57:42.184Z,15.60
2018-10-03T11:00:10.393Z,15.48
2018-10-03T11:02:38.599Z,15.63
2018-10-03T11:05:06.813Z,15.62
2018-10-03T11:07:35.547Z,15.78
2018-10-03T11:10:03.760Z,15.80
2018-10-03T11:12:31.949Z,15.74
2018-10-03T11:15:00.117Z,15.59
2018-10-03T11:17:29.393Z,15.60
2018-10-03T11:19:57.584Z,15.56
2018-10-03T11:22:25.800Z,15.71
2018-10-03T11:24:54.122Z,15.76
2018-10-03T11:27:22.164Z,15.81
2018-10-03T11:29:50.375Z,16.03
2018-10-03T11:32:19.558Z,15.94
2018-10-03T11:34:47.870Z,16.18
2018-10-03T11:37:17.111Z,16.10
2018-10-03T11:39:45.314Z,16.16
2018-10-03T11:42:13.478Z,15.93
2018-10-03T11:44:41.668Z,15.97
2018-10-03T11:47:10.023Z,16.08
2018-10-03T11:49:38.241Z,16.15
2018-10-03T11:52:06.415Z,16.19
2018-10-03T11:54:34.648Z,16.13
2018-10-03T11:57:02.905Z,15.99
2018-10-03T11:59:31.081Z,15.94
2018-10-03T12:02:02.877Z,15.94
2018-10-03T12:04:31.160Z,16.00
2018-10-03T12:06:59.384Z,16.24
2018-10-03T12:09:27.618Z,16.43
2018-10-03T12:11:55.802Z,16.50
2018-10-03T12:14:23.988Z,16.31
2018-10-03T12:16:52.221Z,16.43
2018-10-03T12:19:21.517Z,16.60
2018-10-03T12:21:49.755Z,16.68
2018-10-03T12:24:17.953Z,16.95
2018-10-03T12:26:46.133Z,16.85
2018-10-03T12:29:14.331Z,17.00
2018-10-03T12:31:42.529Z,17.00
2018-10-03T12:34:10.704Z,16.96
2018-10-03T12:36:40.100Z,16.91
2018-10-03T12:39:09.396Z,16.86
2018-10-03T12:41:38.035Z,16.68
2018-10-03T12:44:06.587Z,16.63
2018-10-03T12:46:34.797Z,16.44
2018-10-03T12:49:02.997Z,16.41
2018-10-03T12:51:31.221Z,16.27
2018-10-03T12:53:59.413Z,16.24
2018-10-03T12:56:27.612Z,16.38
2018-10-03T12:58:55.792Z,16.38
2018-10-03T13:01:24.094Z,16.40
2018-10-03T13:03:55.832Z,16.23
2018-10-03T13:06:29.477Z,16.40
2018-10-03T13:08:57.692Z,16.19
2018-10-03T13:11:26.935Z,16.52
2018-10-03T13:13:55.138Z,16.60
2018-10-03T13:16:24.348Z,16.59
2018-10-03T13:18:52.628Z,16.25
2018-10-03T13:21:20.809Z,16.07
2018-10-03T13:23:49.006Z,15.89
2018-10-03T13:26:17.197Z,15.95
2018-10-03T13:28:46.404Z,16.05
2018-10-03T13:31:14.585Z,16.19
2018-10-03T13:33:42.816Z,16.16
2018-10-03T13:36:11.001Z,16.27
2018-10-03T13:38:39.204Z,16.38
2018-10-03T13:41:11.835Z,16.60
2018-10-03T13:43:40.076Z,16.54
2018-10-03T13:46:08.297Z,16.69
2018-10-03T13:48:36.502Z,16.89
2018-10-03T13:51:04.738Z,16.93
2018-10-03T13:53:32.923Z,17.21
2018-10-03T13:56:02.198Z,17.21
2018-10-03T13:58:30.433Z,17.09
2018-10-03T14:00:58.727Z,16.87
2018-10-03T14:03:26.922Z,16.78
2018-10-03T14:05:58.359Z,16.65
2018-10-03T14:08:27.680Z,16.79
2018-10-03T14:10:55.971Z,16.72
2018-10-03T14:13:24.131Z,16.47
2018-10-03T14:15:52.316Z,16.61
2018-10-03T14:18:20.823Z,16.39
2018-10-03T14:20:48.987Z,16.39
2018-10-03T14:23:17.192Z,16.55
2018-10-03T14:25:45.394Z,16.58
2018-10-03T14:28:13.588Z,16.45
2018-10-03T14:30:41.780Z,16.47
2018-10-03T14:33:10.031Z,16.41
2018-10-03T14:35:38.218Z,16.43
2018-10-03T14:38:06.765Z,16.42
2018-10-03T14:40:34.972Z,16.29
2018-10-03T14:43:03.151Z,16.23
2018-10-03T14:45:31.332Z,16.33
2018-10-03T14:47:59.576Z,16.38
2018-10-03T14:50:27.793Z,16.32
2018-10-03T14:53:01.573Z,16.33
2018-10-03T14:55:29.753Z,16.39
2018-10-03T14:57:57.968Z,16.21
2018-10-03T15:00:26.208Z,16.27
2018-10-03T15:02:54.426Z,16.45
2018-10-03T15:05:22.637Z,16.40
2018-10-03T15:07:50.887Z,16.45
2018-10-03T15:10:19.087Z,16.41
2018-10-03T15:12:47.366Z,16.45
2018-10-03T15:15:15.510Z,16.45
2018-10-03T15:17:43.731Z,16.42
2018-10-03T15:20:11.929Z,16.20
2018-10-03T15:22:40.297Z,16.27
2018-10-03T15:25:08.508Z,16.33
2018-10-03T15:27:36.780Z,16.39
2018-10-03T15:30:05.416Z,16.32
2018-10-03T15:32:33.556Z,16.19
2018-10-03T15:35:01.748Z,16.23
2018-10-03T15:37:29.956Z,16.27
2018-10-03T15:39:58.148Z,16.31
2018-10-03T15:42:26.342Z,16.13
2018-10-03T15:44:54.528Z,16.15
2018-10-03T15:47:23.795Z,16.28
2018-10-03T15:49:51.987Z,16.21
2018-10-03T15:52:20.190Z,16.17
2018-10-03T15:54:48.736Z,16.26
2018-10-03T15:57:16.976Z,16.20
2018-10-03T15:59:45.251Z,16.17
2018-10-03T16:02:13.457Z,16.08
2018-10-03T16:04:41.637Z,16.22
2018-10-03T16:07:12.585Z,16.19
2018-10-03T16:09:40.838Z,16.19
2018-10-03T16:12:09.037Z,16.21
2018-10-03T16:14:37.243Z,16.27
2018-10-03T16:17:05.491Z,16.11
2018-10-03T16:19:33.681Z,16.17
2018-10-03T16:22:01.907Z,16.21
2018-10-03T16:24:30.117Z,16.10
2018-10-03T16:26:58.316Z,16.07
2018-10-03T16:29:26.551Z,16.02
2018-10-03T16:31:55.029Z,15.97
2018-10-03T16:34:23.271Z,16.02
2018-10-03T16:36:52.301Z,15.91
2018-10-03T16:39:20.482Z,15.99
2018-10-03T16:41:51.964Z,15.89
2018-10-03T16:44:20.189Z,15.85
2018-10-03T16:46:48.449Z,15.88
2018-10-03T16:49:16.691Z,15.86
2018-10-03T16:51:44.875Z,15.77
2018-10-03T16:54:13.309Z,15.73
2018-10-03T16:56:41.503Z,15.73
2018-10-03T16:59:10.755Z,15.58
2018-10-03T17:01:43.927Z,15.61
2018-10-03T17:04:12.128Z,15.58
2018-10-03T17:06:40.334Z,15.43
2018-10-03T17:09:08.604Z,15.45
2018-10-03T17:11:37.296Z,15.47
2018-10-03T17:14:39.987Z,15.44
2018-10-03T17:17:08.913Z,15.36
2018-10-03T17:19:37.201Z,15.13
2018-10-03T17:22:06.448Z,15.18
2018-10-03T17:24:35.924Z,15.14
2018-10-03T17:27:04.164Z,15.02
2018-10-03T17:29:32.353Z,15.10
2018-10-03T17:32:00.560Z,14.96
2018-10-03T17:34:28.770Z,14.70
2018-10-03T17:36:57.177Z,14.65
2018-10-03T17:39:26.160Z,14.62
2018-10-03T17:41:56.522Z,14.77
2018-10-03T17:44:24.971Z,14.65
2018-10-03T17:46:54.505Z,14.56
2018-10-03T17:49:22.743Z,14.59
2018-10-03T17:51:51.004Z,14.38
2018-10-03T17:54:20.200Z,14.43
2018-10-03T17:57:01.147Z,14.48
2018-10-03T17:59:29.312Z,14.21
2018-10-03T18:01:59.364Z,14.21
2018-10-03T18:04:29.677Z,14.06
2018-10-03T18:06:57.917Z,13.97
2018-10-03T18:09:26.096Z,13.87
2018-10-03T18:11:54.290Z,13.95
2018-10-03T18:14:22.494Z,14.06
2018-10-03T18:16:50.705Z,13.99
2018-10-03T18:19:18.872Z,13.99
2018-10-03T18:21:47.049Z,13.86
2018-10-03T18:24:15.245Z,13.77
2018-10-03T18:26:43.497Z,13.73
2018-10-03T18:29:11.765Z,13.66
2018-10-03T18:31:39.960Z,13.61
2018-10-03T18:34:08.143Z,13.39
2018-10-03T18:36:36.584Z,13.64
2018-10-03T18:39:06.925Z,13.61
2018-10-03T18:41:35.066Z,13.52
2018-10-03T18:44:06.476Z,13.70
2018-10-03T18:46:34.665Z,13.52
2018-10-03T18:49:02.933Z,13.48
2018-10-03T18:51:31.115Z,13.33
2018-10-03T18:53:59.303Z,13.34
2018-10-03T18:56:28.574Z,13.16
2018-10-03T18:58:56.781Z,12.94
2018-10-03T19:01:29.416Z,13.19
2018-10-03T19:03:57.588Z,13.25
2018-10-03T19:06:25.805Z,13.36
2018-10-03T19:08:53.990Z,13.23
2018-10-03T19:11:22.158Z,13.30
2018-10-03T19:13:50.458Z,13.25
2018-10-03T19:16:18.748Z,13.17
2018-10-03T19:18:46.954Z,13.13
2018-10-03T19:21:15.185Z,12.99
2018-10-03T19:23:43.399Z,12.97
2018-10-03T19:26:11.675Z,13.07
2018-10-03T19:28:39.875Z,12.90
2018-10-03T19:31:17.683Z,12.99
2018-10-03T19:33:46.037Z,13.04
2018-10-03T19:36:14.291Z,12.61
2018-10-03T19:38:42.485Z,12.86
2018-10-03T19:41:10.676Z,12.84
2018-10-03T19:43:39.145Z,12.83
2018-10-03T19:46:07.549Z,12.84
2018-10-03T19:48:35.900Z,12.60
2018-10-03T19:51:04.117Z,12.75
2018-10-03T19:53:37.264Z,12.66
2018-10-03T19:56:06.829Z,12.39
2018-10-03T19:58:40.786Z,12.46
2018-10-03T20:01:09.080Z,12.53
2018-10-03T20:03:37.269Z,12.51
2018-10-03T20:06:06.736Z,12.54
2018-10-03T20:08:34.930Z,12.45
2018-10-03T20:11:03.325Z,12.27
2018-10-03T20:13:31.517Z,12.25
2018-10-03T20:15:59.705Z,12.38
2018-10-03T20:18:27.920Z,12.04
2018-10-03T20:20:56.117Z,12.24
2018-10-03T20:23:24.286Z,12.17
2018-10-03T20:25:52.503Z,12.10
2018-10-03T20:28:20.759Z,12.10
2018-10-03T20:30:48.964Z,12.02
2018-10-03T20:33:17.241Z,12.08
2018-10-03T20:35:45.780Z,12.04
2018-10-03T20:38:13.988Z,11.99
2018-10-03T20:40:48.121Z,12.02
2018-10-03T20:43:19.185Z,11.79
2018-10-03T20:45:55.590Z,11.96
2018-10-03T20:48:24.033Z,11.97
2018-10-03T20:50:52.211Z,11.79
2018-10-03T20:53:22.485Z,11.87
2018-10-03T20:55:51.776Z,11.69
2018-10-03T20:58:19.976Z,11.61
2018-10-03T21:00:48.182Z,11.49
2018-10-03T21:03:17.297Z,11.58
2018-10-03T21:05:45.675Z,11.24
2018-10-03T21:08:13.848Z,11.66
2018-10-03T21:10:42.082Z,11.71
2018-10-03T21:13:10.260Z,11.56
2018-10-03T21:15:39.514Z,11.73
2018-10-03T21:18:07.708Z,11.77
2018-10-03T21:20:35.895Z,11.83
2018-10-03T21:23:04.074Z,11.90
2018-10-03T21:25:32.383Z,11.78
2018-10-03T21:28:00.559Z,11.71
2018-10-03T21:30:28.731Z,11.67
2018-10-03T21:32:58.992Z,11.69
2018-10-03T21:35:27.164Z,11.53
2018-10-03T21:37:55.352Z,11.61
2018-10-03T21:40:23.620Z,11.52
2018-10-03T21:42:51.801Z,11.44
2018-10-03T21:45:19.984Z,11.42
2018-10-03T21:47:48.176Z,11.43
2018-10-03T21:50:16.374Z,11.48
2018-10-03T21:52:45.692Z,11.42
2018-10-03T21:55:13.883Z,11.45
2018-10-03T21:57:42.103Z,11.24
2018-10-03T22:00:10.330Z,11.41
2018-10-03T22:02:38.937Z,11.37
2018-10-03T22:05:08.959Z,11.52
2018-10-03T22:07:37.617Z,11.33
2018-10-03T22:10:05.950Z,11.44
2018-10-03T22:12:34.202Z,11.30
2018-10-03T22:15:02.406Z,11.30
2018-10-03T22:17:34.742Z,11.29
2018-10-03T22:20:02.956Z,11.23
2018-10-03T22:22:31.230Z,11.13
2018-10-03T22:24:59.388Z,10.96
2018-10-03T22:27:27.613Z,10.84
2018-10-03T22:29:55.808Z,10.97
2018-10-03T22:32:24.058Z,10.86
2018-10-03T22:34:52.253Z,10.93
2018-10-03T22:37:20.476Z,10.92
2018-10-03T22:39:48.690Z,10.68
2018-10-03T22:42:18.976Z,10.70
2018-10-03T22:44:47.212Z,10.92
2018-10-03T22:47:15.436Z,10.96
2018-10-03T22:49:43.665Z,10.79
2018-10-03T22:52:11.876Z,10.83
2018-10-03T22:54:40.153Z,10.68
2018-10-03T22:57:08.332Z,10.75
2018-10-03T22:59:36.520Z,10.66
2018-10-03T23:02:04.737Z,10.80
2018-10-03T23:04:32.936Z,10.72
2018-10-03T23:07:01.163Z,10.76
2018-10-03T23:09:29.348Z,10.67
2018-10-03T23:11:57.538Z,10.79
2018-10-03T23:14:25.715Z,10.38
2018-10-03T23:16:53.959Z,10.56
2018-10-03T23:19:22.142Z,10.55
2018-10-03T23:21:50.315Z,10.55
2018-10-03T23:24:18.537Z,10.39
2018-10-03T23:26:46.786Z,10.47
2018-10-03T23:29:14.956Z,10.51
2018-10-03T23:31:43.141Z,10.51
2018-10-03T23:34:11.345Z,10.39
2018-10-03T23:36:39.513Z,10.49
2018-10-03T23:39:09.269Z,10.44
2018-10-03T23:41:37.757Z,10.29
2018-10-03T23:44:05.936Z,10.30
2018-10-03T23:46:34.289Z,10.18
2018-10-03T23:49:02.460Z,10.22
2018-10-03T23:51:30.640Z,10.18
2018-10-03T23:53:58.843Z,10.21
2018-10-03T23:56:27.025Z,10.30
2018-10-03T23:58:55.190Z,10.31
